createdAt,value
2023-03-15T00:01:05.563Z,0.60
2023-03-15T00:03:37.374Z,0.57
2023-03-15T00:06:07.815Z,2.87
2023-03-15T00:08:36.207Z,0.70
2023-03-15T00:11:04.977Z,0.60
2023-03-15T00:13:33.372Z,0.80
2023-03-15T00:16:03.342Z,1.17
2023-03-15T00:18:32.100Z,1.00
2023-03-15T00:21:03.124Z,2.90
2023-03-15T00:23:32.910Z,2.10
2023-03-15T00:26:01.233Z,0.60
2023-03-15T00:28:29.555Z,0.90
2023-03-15T00:31:05.669Z,0.73
2023-03-15T00:33:35.179Z,0.80
2023-03-15T00:36:08.068Z,1.47
2023-03-15T00:38:39.720Z,1.40
2023-03-15T00:41:09.170Z,0.50
2023-03-15T00:43:37.844Z,0.70
2023-03-15T00:46:06.988Z,2.20
2023-03-15T00:48:36.375Z,0.60
2023-03-15T00:51:06.919Z,0.93
2023-03-15T00:53:37.427Z,1.47
2023-03-15T00:56:07.317Z,0.70
2023-03-15T00:58:36.147Z,1.43
2023-03-15T01:01:07.569Z,1.07
2023-03-15T01:03:37.056Z,0.70
2023-03-15T01:06:09.908Z,0.90
2023-03-15T01:08:39.977Z,1.67
2023-03-15T01:11:11.967Z,2.13
2023-03-15T01:13:41.025Z,0.50
2023-03-15T01:16:11.153Z,0.80
2023-03-15T01:18:41.397Z,0.93
2023-03-15T01:21:10.769Z,0.93
2023-03-15T01:23:40.846Z,6.10
2023-03-15T01:26:12.573Z,0.70
2023-03-15T01:28:41.152Z,1.00
2023-03-15T01:31:11.370Z,0.60
2023-03-15T01:33:40.031Z,1.10
2023-03-15T01:36:10.172Z,1.30
2023-03-15T01:38:41.369Z,0.77
2023-03-15T01:41:11.009Z,1.70
2023-03-15T01:43:39.457Z,0.60
2023-03-15T01:46:26.676Z,9.73
2023-03-15T01:49:05.347Z,1.77
2023-03-15T01:51:40.246Z,0.60
2023-03-15T01:54:12.300Z,1.13
2023-03-15T01:56:43.948Z,0.70
2023-03-15T01:59:15.800Z,1.30
2023-03-15T02:01:46.004Z,2.03
2023-03-15T02:04:19.645Z,1.10
2023-03-15T02:06:50.687Z,0.70
2023-03-15T02:09:22.420Z,2.87
2023-03-15T02:11:50.905Z,1.20
2023-03-15T02:14:22.539Z,1.00
2023-03-15T02:16:53.643Z,2.00
2023-03-15T02:19:36.563Z,2.03
2023-03-15T02:22:19.754Z,0.50
2023-03-15T02:24:53.836Z,0.90
2023-03-15T02:27:29.186Z,1.17
2023-03-15T02:29:57.709Z,0.80
2023-03-15T02:32:26.284Z,0.70
2023-03-15T02:34:54.637Z,2.30
2023-03-15T02:37:23.097Z,1.87
2023-03-15T02:39:51.556Z,0.73
2023-03-15T02:42:20.286Z,1.60
2023-03-15T02:44:52.290Z,0.90
2023-03-15T02:47:23.248Z,1.13
2023-03-15T02:49:53.975Z,1.70
2023-03-15T02:52:22.842Z,0.87
2023-03-15T02:54:51.498Z,0.60
2023-03-15T02:57:20.765Z,0.70
2023-03-15T02:59:51.469Z,0.90
2023-03-15T03:02:20.764Z,1.83
2023-03-15T03:04:49.210Z,0.60
2023-03-15T03:07:20.210Z,1.03
2023-03-15T03:09:52.807Z,0.80
2023-03-15T03:12:22.578Z,2.07
2023-03-15T03:14:52.434Z,1.20
2023-03-15T03:17:24.692Z,0.60
2023-03-15T03:19:53.067Z,0.63
2023-03-15T03:22:27.564Z,0.97
2023-03-15T03:24:56.302Z,1.90
2023-03-15T03:27:24.709Z,0.80
2023-03-15T03:29:54.420Z,1.80
2023-03-15T03:32:23.053Z,0.60
2023-03-15T03:34:53.515Z,0.70
2023-03-15T03:37:24.165Z,1.47
2023-03-15T03:40:00.496Z,0.60
2023-03-15T03:42:29.110Z,0.50
2023-03-15T03:44:58.928Z,0.70
2023-03-15T03:47:34.277Z,1.33
2023-03-15T03:50:02.646Z,0.90
2023-03-15T03:52:31.291Z,1.23
2023-03-15T03:55:07.811Z,0.67
2023-03-15T03:57:36.288Z,1.17
2023-03-15T04:00:11.855Z,2.97
2023-03-15T04:02:43.965Z,0.80
2023-03-15T04:05:14.835Z,0.60
2023-03-15T04:07:43.595Z,1.20
2023-03-15T04:10:14.995Z,0.70
2023-03-15T04:12:46.985Z,0.80
2023-03-15T04:15:18.549Z,1.47
2023-03-15T04:17:47.003Z,0.77
2023-03-15T04:20:17.607Z,0.60
2023-03-15T04:22:49.756Z,2.30
2023-03-15T04:25:26.907Z,3.33
2023-03-15T04:28:06.142Z,0.60
2023-03-15T04:30:52.446Z,0.90
2023-03-15T04:33:43.526Z,0.70
2023-03-15T04:36:30.140Z,0.50
2023-03-15T04:39:34.491Z,1.47
2023-03-15T04:42:26.196Z,0.87
2023-03-15T04:45:00.201Z,2.40
2023-03-15T04:48:05.627Z,0.80
2023-03-15T04:50:41.136Z,1.73
2023-03-15T04:53:30.127Z,0.60
2023-03-15T04:56:32.836Z,0.60
2023-03-15T04:59:32.933Z,0.93
2023-03-15T05:02:24.894Z,0.83
2023-03-15T05:05:17.650Z,0.80
2023-03-15T05:08:11.843Z,1.57
2023-03-15T05:11:03.301Z,2.20
2023-03-15T05:13:47.984Z,0.83
2023-03-15T05:16:36.265Z,1.77
2023-03-15T05:19:17.809Z,0.90
2023-03-15T05:22:03.856Z,0.67
2023-03-15T05:25:04.866Z,2.30
2023-03-15T05:28:00.156Z,1.10
2023-03-15T05:30:36.429Z,1.30
2023-03-15T05:33:25.529Z,1.40
2023-03-15T05:36:22.834Z,1.03
2023-03-15T05:39:33.253Z,0.83
2023-03-15T05:42:13.595Z,2.00
2023-03-15T05:44:47.513Z,1.07
2023-03-15T05:47:35.886Z,1.00
2023-03-15T05:50:07.779Z,2.80
2023-03-15T05:52:57.117Z,1.30
2023-03-15T05:55:44.882Z,1.93
2023-03-15T05:58:29.065Z,0.90
2023-03-15T06:01:06.394Z,1.77
2023-03-15T06:03:59.109Z,1.77
2023-03-15T06:06:33.551Z,1.73
2023-03-15T06:09:03.017Z,2.20
2023-03-15T06:11:32.852Z,0.70
2023-03-15T06:14:02.326Z,3.63
2023-03-15T06:16:39.177Z,2.73
2023-03-15T06:19:08.675Z,3.10
2023-03-15T06:21:37.112Z,0.80
2023-03-15T06:24:11.221Z,5.13
2023-03-15T06:26:40.968Z,1.90
2023-03-15T06:29:09.631Z,1.27
2023-03-15T06:31:38.028Z,0.70
2023-03-15T06:34:10.166Z,1.67
2023-03-15T06:36:38.913Z,0.97
2023-03-15T06:39:07.853Z,0.70
2023-03-15T06:41:36.129Z,1.47
2023-03-15T06:44:14.045Z,1.10
2023-03-15T06:46:43.154Z,1.03
2023-03-15T06:49:13.890Z,0.60
2023-03-15T06:51:45.228Z,0.70
2023-03-15T06:54:13.673Z,1.10
2023-03-15T06:56:41.985Z,0.53
2023-03-15T06:59:10.454Z,1.40
2023-03-15T07:01:40.633Z,0.90
2023-03-15T07:04:09.660Z,0.60
2023-03-15T07:06:38.158Z,0.50
2023-03-15T07:09:07.017Z,2.00
2023-03-15T07:11:35.406Z,1.93
2023-03-15T07:14:03.690Z,0.60
2023-03-15T07:16:32.032Z,1.13
2023-03-15T07:19:02.261Z,1.07
2023-03-15T07:21:30.800Z,1.57
2023-03-15T07:23:59.160Z,1.20
2023-03-15T07:26:27.420Z,1.33
2023-03-15T07:28:55.803Z,0.60
2023-03-15T07:31:24.090Z,0.60
2023-03-15T07:33:52.418Z,2.00
2023-03-15T07:36:22.360Z,0.60
2023-03-15T07:38:50.792Z,1.37
2023-03-15T07:41:19.561Z,2.77
2023-03-15T07:43:59.192Z,0.60
2023-03-15T07:46:28.422Z,3.60
2023-03-15T07:48:56.856Z,0.50
2023-03-15T07:51:26.507Z,0.93
2023-03-15T07:53:54.806Z,3.30
2023-03-15T07:56:23.160Z,0.67
2023-03-15T07:58:51.445Z,0.70
2023-03-15T08:01:19.778Z,0.50
2023-03-15T08:03:48.285Z,0.90
2023-03-15T08:06:16.570Z,0.93
2023-03-15T08:08:46.794Z,0.70
2023-03-15T08:11:15.110Z,0.80
2023-03-15T08:13:43.390Z,0.70
2023-03-15T08:16:11.750Z,0.97
2023-03-15T08:18:40.112Z,0.57
2023-03-15T08:21:08.363Z,0.90
2023-03-15T08:23:36.662Z,0.70
2023-03-15T08:26:06.674Z,0.73
2023-03-15T08:28:35.069Z,0.67
2023-03-15T08:31:07.932Z,0.63
2023-03-15T08:33:36.351Z,0.70
2023-03-15T08:36:05.023Z,0.70
2023-03-15T08:38:33.330Z,0.63
2023-03-15T08:41:01.680Z,1.43
2023-03-15T08:43:31.357Z,0.60
2023-03-15T08:46:01.486Z,0.80
2023-03-15T08:48:31.657Z,0.60
2023-03-15T08:51:04.533Z,1.53
2023-03-15T08:53:33.259Z,0.60
2023-03-15T08:56:01.732Z,0.80
2023-03-15T08:58:31.586Z,1.37
2023-03-15T09:01:00.105Z,0.80
2023-03-15T09:03:28.450Z,0.70
2023-03-15T09:06:00.596Z,3.80
2023-03-15T09:08:28.881Z,0.50
2023-03-15T09:10:57.518Z,0.67
2023-03-15T09:13:32.621Z,0.80
2023-03-15T09:16:03.530Z,0.50
2023-03-15T09:18:31.939Z,1.47
2023-03-15T09:21:00.283Z,2.20
2023-03-15T09:23:28.691Z,0.70
2023-03-15T09:25:57.008Z,0.80
2023-03-15T09:28:26.735Z,0.50
2023-03-15T09:30:55.283Z,0.60
2023-03-15T09:33:25.382Z,0.60
2023-03-15T09:35:54.207Z,0.60
2023-03-15T09:38:24.227Z,0.60
2023-03-15T09:40:57.752Z,0.73
2023-03-15T09:43:40.207Z,0.60
2023-03-15T09:46:20.188Z,0.70
2023-03-15T09:48:52.413Z,0.60
2023-03-15T09:51:30.400Z,0.60
2023-03-15T09:54:00.471Z,4.63
2023-03-15T09:56:31.132Z,0.50
2023-03-15T09:59:01.790Z,0.83
2023-03-15T10:01:33.056Z,0.60
2023-03-15T10:04:06.465Z,0.60
2023-03-15T10:06:37.808Z,0.50
2023-03-15T10:09:13.940Z,0.80
2023-03-15T10:11:47.914Z,0.70
2023-03-15T10:14:26.210Z,0.60
2023-03-15T10:16:54.482Z,0.70
2023-03-15T10:19:35.598Z,0.60
2023-03-15T10:22:19.988Z,0.60
2023-03-15T10:24:51.658Z,0.83
2023-03-15T10:27:23.174Z,0.60
2023-03-15T10:29:53.776Z,0.70
2023-03-15T10:32:24.160Z,1.23
2023-03-15T10:34:56.754Z,1.63
2023-03-15T10:37:25.545Z,0.60
2023-03-15T10:39:57.483Z,0.97
2023-03-15T10:42:27.884Z,1.00
2023-03-15T10:44:56.326Z,0.70
2023-03-15T10:47:25.831Z,1.53
2023-03-15T10:50:00.576Z,1.00
2023-03-15T10:52:35.360Z,0.80
2023-03-15T10:55:06.935Z,0.93
2023-03-15T10:57:39.145Z,1.77
2023-03-15T11:00:20.596Z,0.60
2023-03-15T11:02:52.889Z,0.60
2023-03-15T11:05:22.993Z,0.60
2023-03-15T11:07:56.089Z,0.60
2023-03-15T11:10:26.359Z,0.50
2023-03-15T11:13:20.752Z,0.90
2023-03-15T11:15:58.126Z,0.90
2023-03-15T11:18:29.431Z,2.93
2023-03-15T11:20:59.873Z,0.60
2023-03-15T11:23:30.358Z,0.60
2023-03-15T11:25:59.107Z,1.10
2023-03-15T11:28:29.494Z,0.60
2023-03-15T11:31:02.053Z,0.60
2023-03-15T11:33:39.941Z,2.00
2023-03-15T11:36:14.732Z,0.67
2023-03-15T11:38:46.354Z,3.53
2023-03-15T11:41:23.550Z,2.87
2023-03-15T11:43:57.891Z,2.50
2023-03-15T11:46:29.619Z,0.60
2023-03-15T11:49:03.709Z,0.70
2023-03-15T11:51:37.053Z,8.83
2023-03-15T11:54:15.258Z,0.60
2023-03-15T11:56:52.917Z,0.70
2023-03-15T11:59:25.670Z,0.63
2023-03-15T12:01:57.884Z,2.33
2023-03-15T12:04:45.429Z,0.70
2023-03-15T12:07:39.820Z,0.60
2023-03-15T12:10:31.845Z,1.73
2023-03-15T12:13:01.771Z,1.93
2023-03-15T12:15:47.707Z,2.13
2023-03-15T12:18:18.206Z,1.17
2023-03-15T12:20:52.431Z,1.20
2023-03-15T12:23:34.241Z,2.53
2023-03-15T12:26:08.205Z,5.53
2023-03-15T12:28:38.246Z,1.43
2023-03-15T12:31:08.186Z,1.23
2023-03-15T12:33:47.660Z,1.43
2023-03-15T12:36:27.914Z,0.70
2023-03-15T12:39:01.961Z,2.10
2023-03-15T12:41:39.250Z,1.37
2023-03-15T12:44:29.144Z,1.30
2023-03-15T12:47:00.669Z,3.43
2023-03-15T12:49:35.280Z,1.53
2023-03-15T12:52:05.896Z,1.40
2023-03-15T12:54:43.741Z,1.00
2023-03-15T12:57:14.189Z,0.93
2023-03-15T12:59:47.743Z,1.43
2023-03-15T13:02:41.816Z,1.90
2023-03-15T13:05:18.527Z,2.17
2023-03-15T13:07:58.209Z,2.27
2023-03-15T13:10:41.587Z,1.37
2023-03-15T13:13:35.141Z,1.30
2023-03-15T13:16:15.578Z,2.00
2023-03-15T13:18:52.883Z,1.00
2023-03-15T13:21:26.110Z,1.43
2023-03-15T13:23:58.027Z,3.17
2023-03-15T13:26:44.161Z,1.40
2023-03-15T13:29:17.741Z,1.47
2023-03-15T13:31:47.183Z,1.27
2023-03-15T13:34:19.474Z,1.63
2023-03-15T13:36:49.651Z,0.80
2023-03-15T13:39:20.722Z,1.60
2023-03-15T13:41:57.789Z,1.80
2023-03-15T13:44:26.948Z,2.00
2023-03-15T13:46:55.913Z,1.87
2023-03-15T13:49:24.666Z,1.20
2023-03-15T13:51:54.619Z,1.40
2023-03-15T13:54:26.795Z,4.80
2023-03-15T13:57:01.812Z,5.03
2023-03-15T13:59:33.850Z,1.73
2023-03-15T14:02:03.701Z,2.33
2023-03-15T14:04:34.104Z,3.73
2023-03-15T14:07:14.295Z,1.20
2023-03-15T14:09:42.637Z,1.93
2023-03-15T14:12:20.125Z,2.40
2023-03-15T14:14:51.631Z,1.73
2023-03-15T14:17:23.980Z,1.50
2023-03-15T14:19:55.487Z,1.17
2023-03-15T14:22:24.335Z,1.50
2023-03-15T14:24:53.609Z,1.97
2023-03-15T14:27:27.574Z,2.00
2023-03-15T14:29:56.673Z,1.97
2023-03-15T14:32:28.959Z,1.60
2023-03-15T14:35:02.786Z,0.90
2023-03-15T14:37:34.083Z,1.90
2023-03-15T14:40:22.006Z,2.60
2023-03-15T14:42:52.595Z,6.10
2023-03-15T14:45:22.504Z,1.80
2023-03-15T14:47:57.211Z,1.17
2023-03-15T14:50:28.698Z,1.30
2023-03-15T14:52:58.403Z,0.90
2023-03-15T14:55:34.892Z,1.60
2023-03-15T14:58:05.783Z,2.23
2023-03-15T15:00:34.523Z,2.50
2023-03-15T15:03:03.269Z,2.17
2023-03-15T15:05:32.728Z,2.30
2023-03-15T15:08:04.151Z,2.93
2023-03-15T15:10:35.003Z,2.60
2023-03-15T15:13:07.064Z,1.93
2023-03-15T15:15:54.142Z,1.97
2023-03-15T15:18:28.373Z,2.10
2023-03-15T15:20:57.565Z,2.40
2023-03-15T15:23:28.559Z,1.20
2023-03-15T15:25:59.816Z,1.90
2023-03-15T15:28:36.080Z,1.43
2023-03-15T15:31:07.370Z,1.70
2023-03-15T15:33:36.786Z,1.67
2023-03-15T15:36:09.321Z,1.47
2023-03-15T15:38:40.291Z,1.87
2023-03-15T15:41:15.864Z,1.10
2023-03-15T15:43:45.934Z,1.40
2023-03-15T15:46:16.315Z,4.50
2023-03-15T15:48:45.604Z,2.53
2023-03-15T15:51:21.551Z,2.13
2023-03-15T15:53:50.491Z,3.20
2023-03-15T15:56:19.088Z,2.97
2023-03-15T15:58:49.052Z,3.70
2023-03-15T16:01:18.692Z,1.93
2023-03-15T16:03:48.701Z,1.50
2023-03-15T16:06:22.273Z,1.77
2023-03-15T16:08:53.891Z,2.07
2023-03-15T16:11:22.850Z,2.57
2023-03-15T16:13:54.672Z,1.53
2023-03-15T16:16:25.769Z,4.90
2023-03-15T16:19:01.639Z,2.83
2023-03-15T16:21:34.450Z,2.97
2023-03-15T16:24:07.932Z,2.30
2023-03-15T16:26:38.958Z,1.17
2023-03-15T16:29:17.856Z,2.00
2023-03-15T16:31:47.728Z,4.73
2023-03-15T16:34:23.773Z,4.07
2023-03-15T16:36:59.376Z,5.17
2023-03-15T16:39:38.154Z,3.20
2023-03-15T16:42:13.195Z,6.40
2023-03-15T16:44:44.963Z,1.33
2023-03-15T16:47:26.372Z,6.20
2023-03-15T16:49:59.897Z,5.43
2023-03-15T16:52:31.727Z,3.70
2023-03-15T16:55:01.843Z,2.30
2023-03-15T16:57:31.384Z,3.10
2023-03-15T17:00:05.364Z,2.23
2023-03-15T17:02:35.448Z,3.90
2023-03-15T17:05:05.422Z,2.20
2023-03-15T17:07:38.792Z,8.90
2023-03-15T17:10:12.487Z,4.30
2023-03-15T17:12:42.588Z,1.83
2023-03-15T17:15:17.200Z,3.50
2023-03-15T17:17:47.965Z,0.67
2023-03-15T17:20:22.279Z,4.83
2023-03-15T17:23:00.482Z,1.87
2023-03-15T17:25:31.694Z,1.97
2023-03-15T17:28:05.858Z,0.73
2023-03-15T17:30:41.676Z,1.23
2023-03-15T17:33:13.747Z,1.50
2023-03-15T17:35:48.545Z,2.70
2023-03-15T17:38:22.282Z,1.73
2023-03-15T17:40:54.222Z,0.77
2023-03-15T17:43:26.905Z,3.53
2023-03-15T17:45:58.256Z,2.20
2023-03-15T17:48:34.727Z,2.60
2023-03-15T17:51:08.286Z,1.90
2023-03-15T17:53:45.333Z,2.60
2023-03-15T17:56:17.728Z,5.10
2023-03-15T17:59:00.008Z,3.00
2023-03-15T18:01:43.138Z,7.13
2023-03-15T18:04:13.029Z,3.13
2023-03-15T18:06:43.164Z,7.03
2023-03-15T18:09:15.649Z,4.33
2023-03-15T18:11:48.675Z,15.70
2023-03-15T18:14:22.101Z,4.13
2023-03-15T18:16:54.032Z,3.33
2023-03-15T18:19:25.836Z,2.20
2023-03-15T18:21:55.484Z,3.70
2023-03-15T18:24:26.336Z,2.80
2023-03-15T18:26:58.487Z,2.23
2023-03-15T18:29:33.404Z,1.83
2023-03-15T18:32:04.813Z,3.00
2023-03-15T18:34:35.575Z,5.67
2023-03-15T18:37:10.026Z,4.10
2023-03-15T18:39:41.442Z,2.53
2023-03-15T18:42:22.610Z,9.53
2023-03-15T18:44:57.381Z,2.10
2023-03-15T18:47:36.158Z,2.60
2023-03-15T18:50:10.478Z,2.33
2023-03-15T18:52:44.713Z,2.53
2023-03-15T18:55:20.212Z,2.37
2023-03-15T18:57:53.709Z,7.50
2023-03-15T19:00:27.957Z,5.30
2023-03-15T19:03:02.139Z,10.17
2023-03-15T19:05:43.754Z,4.13
2023-03-15T19:08:15.456Z,7.43
2023-03-15T19:10:55.736Z,4.60
2023-03-15T19:13:36.797Z,14.17
2023-03-15T19:16:10.403Z,6.97
2023-03-15T19:18:47.843Z,4.30
2023-03-15T19:21:20.101Z,8.63
2023-03-15T19:23:57.117Z,2.27
2023-03-15T19:26:32.937Z,4.70
2023-03-15T19:29:08.993Z,9.30
2023-03-15T19:31:44.716Z,3.07
2023-03-15T19:34:32.164Z,3.70
2023-03-15T19:37:16.744Z,4.50
2023-03-15T19:39:56.240Z,4.70
2023-03-15T19:42:31.850Z,2.20
2023-03-15T19:45:14.583Z,2.63
2023-03-15T19:47:46.380Z,5.40
2023-03-15T19:50:23.713Z,5.17
2023-03-15T19:52:58.848Z,2.63
2023-03-15T19:55:38.875Z,4.30
2023-03-15T20:01:29.953Z,4.73
2023-03-15T20:04:03.774Z,8.93
2023-03-15T20:06:37.212Z,3.30
2023-03-15T20:09:15.952Z,3.30
2023-03-15T20:11:54.999Z,6.47
2023-03-15T20:14:32.094Z,3.93
2023-03-15T20:17:13.997Z,4.90
2023-03-15T20:19:47.458Z,4.30
2023-03-15T20:22:44.168Z,4.30
2023-03-15T20:25:29.397Z,4.93
2023-03-15T20:28:08.890Z,6.27
2023-03-15T20:30:45.760Z,5.60
2023-03-15T20:33:21.267Z,8.03
2023-03-15T20:35:59.848Z,5.37
2023-03-15T20:38:43.298Z,5.70
2023-03-15T20:41:19.851Z,7.20
2023-03-15T20:44:04.432Z,9.37
2023-03-15T20:46:45.025Z,9.90
2023-03-15T20:49:33.866Z,9.17
2023-03-15T20:52:10.357Z,5.20
2023-03-15T20:55:01.723Z,15.10
2023-03-15T20:57:38.195Z,9.23
2023-03-15T21:00:15.557Z,9.53
2023-03-15T21:02:59.812Z,10.33
2023-03-15T21:05:39.053Z,8.83
2023-03-15T21:08:12.644Z,7.27
2023-03-15T21:10:55.921Z,9.50
2023-03-15T21:13:50.421Z,8.40
2023-03-15T21:16:26.410Z,7.73
2023-03-15T21:19:03.693Z,9.93
2023-03-15T21:21:34.961Z,10.90
2023-03-15T21:24:07.636Z,9.70
2023-03-15T21:26:39.409Z,10.83
2023-03-15T21:29:10.901Z,7.40
2023-03-15T21:31:43.126Z,12.37
2023-03-15T21:34:20.535Z,8.83
2023-03-15T21:36:51.656Z,9.30
2023-03-15T21:39:21.609Z,8.17
2023-03-15T21:41:53.372Z,8.10
2023-03-15T21:44:22.815Z,9.80
2023-03-15T21:46:53.113Z,6.80
2023-03-15T21:49:22.256Z,9.40
2023-03-15T21:51:52.079Z,3.03
2023-03-15T21:54:22.413Z,8.83
2023-03-15T21:56:53.577Z,9.43
2023-03-15T21:59:27.861Z,11.60
2023-03-15T22:01:56.843Z,8.77
2023-03-15T22:04:25.979Z,9.83
2023-03-15T22:06:54.725Z,5.90
2023-03-15T22:09:23.995Z,11.30
2023-03-15T22:11:53.878Z,7.83
2023-03-15T22:14:22.523Z,8.07
2023-03-15T22:16:51.706Z,8.07
2023-03-15T22:19:20.040Z,7.57
2023-03-15T22:21:48.683Z,7.13
2023-03-15T22:24:17.017Z,5.10
2023-03-15T22:26:45.946Z,5.00
2023-03-15T22:29:15.858Z,4.83
2023-03-15T22:31:44.156Z,5.40
2023-03-15T22:34:13.175Z,4.80
2023-03-15T22:36:42.808Z,2.50
2023-03-15T22:39:11.726Z,3.30
2023-03-15T22:41:41.416Z,5.07
2023-03-15T22:44:09.752Z,4.73
2023-03-15T22:46:39.516Z,6.60
2023-03-15T22:49:08.056Z,5.63
2023-03-15T22:51:40.432Z,3.03
2023-03-15T22:54:09.285Z,7.50
2023-03-15T22:56:40.986Z,3.33
2023-03-15T22:59:09.426Z,2.40
2023-03-15T23:01:39.092Z,3.37
2023-03-15T23:04:07.729Z,1.43
2023-03-15T23:06:36.152Z,3.60
2023-03-15T23:09:06.556Z,4.83
2023-03-15T23:11:35.001Z,1.40
2023-03-15T23:14:03.279Z,1.10
2023-03-15T23:16:32.057Z,9.47
2023-03-15T23:19:03.368Z,1.27
2023-03-15T23:21:31.772Z,3.00
2023-03-15T23:24:00.277Z,2.37
2023-03-15T23:26:28.741Z,2.77
2023-03-15T23:28:57.290Z,0.90
2023-03-15T23:31:25.618Z,1.67
2023-03-15T23:33:53.950Z,2.03
2023-03-15T23:36:23.697Z,3.10
2023-03-15T23:38:53.407Z,1.50
2023-03-15T23:41:21.798Z,0.70
2023-03-15T23:43:50.039Z,5.80
2023-03-15T23:46:18.413Z,3.83
2023-03-15T23:48:46.800Z,2.40
2023-03-15T23:51:15.197Z,5.33
2023-03-15T23:53:44.999Z,2.77
2023-03-15T23:56:13.311Z,3.60
2023-03-15T23:58:41.567Z,4.73
